sensor_id;sensor_type;location;lat;lon;timestamp;temperature;humidity
21518;DHT22;61765;45.794;24.150;2023-04-06T00:05:47;10.60;86.70
21518;DHT22;61765;45.794;24.150;2023-04-06T00:13:56;10.00;87.20
21518;DHT22;61765;45.794;24.150;2023-04-06T00:22:01;9.60;88.70
21518;DHT22;61765;45.794;24.150;2023-04-06T00:30:10;9.90;88.30
21518;DHT22;61765;45.794;24.150;2023-04-06T00:38:17;10.20;87.20
21518;DHT22;61765;45.794;24.150;2023-04-06T00:46:25;10.40;86.50
21518;DHT22;61765;45.794;24.150;2023-04-06T00:54:31;10.50;86.40
21518;DHT22;61765;45.794;24.150;2023-04-06T01:02:40;10.50;86.50
21518;DHT22;61765;45.794;24.150;2023-04-06T01:10:51;10.50;86.40
21518;DHT22;61765;45.794;24.150;2023-04-06T01:19:10;10.50;86.10
21518;DHT22;61765;45.794;24.150;2023-04-06T01:27:25;10.50;86.00
21518;DHT22;61765;45.794;24.150;2023-04-06T01:35:44;10.50;86.40
21518;DHT22;61765;45.794;24.150;2023-04-06T01:43:55;10.60;86.20
21518;DHT22;61765;45.794;24.150;2023-04-06T01:52:04;10.50;86.10
21518;DHT22;61765;45.794;24.150;2023-04-06T02:00:17;10.40;86.50
21518;DHT22;61765;45.794;24.150;2023-04-06T02:08:27;10.60;86.20
21518;DHT22;61765;45.794;24.150;2023-04-06T02:16:36;10.60;85.70
21518;DHT22;61765;45.794;24.150;2023-04-06T02:24:42;10.70;85.50
21518;DHT22;61765;45.794;24.150;2023-04-06T02:32:50;10.60;85.60
21518;DHT22;61765;45.794;24.150;2023-04-06T02:40:56;10.40;86.00
21518;DHT22;61765;45.794;24.150;2023-04-06T02:49:06;10.50;85.40
21518;DHT22;61765;45.794;24.150;2023-04-06T02:57:12;10.50;85.00
21518;DHT22;61765;45.794;24.150;2023-04-06T03:05:22;10.30;84.60
21518;DHT22;61765;45.794;24.150;2023-04-06T03:13:29;10.40;85.00
21518;DHT22;61765;45.794;24.150;2023-04-06T03:21:37;10.40;84.80
21518;DHT22;61765;45.794;24.150;2023-04-06T03:29:44;10.40;85.00
21518;DHT22;61765;45.794;24.150;2023-04-06T03:37:58;10.30;84.80
21518;DHT22;61765;45.794;24.150;2023-04-06T03:46:04;10.30;85.20
21518;DHT22;61765;45.794;24.150;2023-04-06T03:54:13;10.00;84.80
21518;DHT22;61765;45.794;24.150;2023-04-06T04:02:18;10.20;85.20
21518;DHT22;61765;45.794;24.150;2023-04-06T04:10:27;10.10;85.00
21518;DHT22;61765;45.794;24.150;2023-04-06T04:18:33;9.90;85.60
21518;DHT22;61765;45.794;24.150;2023-04-06T04:26:43;9.60;85.80
21518;DHT22;61765;45.794;24.150;2023-04-06T04:34:50;9.40;86.50
21518;DHT22;61765;45.794;24.150;2023-04-06T04:43:10;9.60;86.30
21518;DHT22;61765;45.794;24.150;2023-04-06T04:51:16;9.90;85.60
21518;DHT22;61765;45.794;24.150;2023-04-06T04:59:45;9.80;85.40
21518;DHT22;61765;45.794;24.150;2023-04-06T05:07:53;10.00;85.50
21518;DHT22;61765;45.794;24.150;2023-04-06T05:16:13;9.90;85.10
21518;DHT22;61765;45.794;24.150;2023-04-06T05:24:19;10.20;84.90
21518;DHT22;61765;45.794;24.150;2023-04-06T05:32:27;10.10;83.80
21518;DHT22;61765;45.794;24.150;2023-04-06T05:40:34;10.40;83.30
21518;DHT22;61765;45.794;24.150;2023-04-06T05:48:46;10.60;82.10
21518;DHT22;61765;45.794;24.150;2023-04-06T05:56:54;10.90;81.20
21518;DHT22;61765;45.794;24.150;2023-04-06T06:05:03;11.00;80.20
21518;DHT22;61765;45.794;24.150;2023-04-06T06:13:09;11.40;78.80
21518;DHT22;61765;45.794;24.150;2023-04-06T06:21:18;11.40;77.10
21518;DHT22;61765;45.794;24.150;2023-04-06T06:29:24;11.60;77.30
21518;DHT22;61765;45.794;24.150;2023-04-06T06:37:32;11.60;76.90
21518;DHT22;61765;45.794;24.150;2023-04-06T06:45:38;11.90;77.70
21518;DHT22;61765;45.794;24.150;2023-04-06T06:53:47;11.80;77.40
21518;DHT22;61765;45.794;24.150;2023-04-06T07:01:53;12.20;76.70
21518;DHT22;61765;45.794;24.150;2023-04-06T07:10:01;12.10;76.90
21518;DHT22;61765;45.794;24.150;2023-04-06T07:18:07;12.10;76.20
21518;DHT22;61765;45.794;24.150;2023-04-06T07:26:15;12.40;75.60
21518;DHT22;61765;45.794;24.150;2023-04-06T07:34:21;12.30;73.80
21518;DHT22;61765;45.794;24.150;2023-04-06T07:42:30;12.20;74.00
21518;DHT22;61765;45.794;24.150;2023-04-06T07:50:36;12.40;72.50
21518;DHT22;61765;45.794;24.150;2023-04-06T07:58:46;12.60;72.80
21518;DHT22;61765;45.794;24.150;2023-04-06T08:06:55;12.60;72.80
21518;DHT22;61765;45.794;24.150;2023-04-06T08:15:04;12.50;72.40
21518;DHT22;61765;45.794;24.150;2023-04-06T08:23:10;12.90;72.80
21518;DHT22;61765;45.794;24.150;2023-04-06T08:31:36;13.10;71.30
21518;DHT22;61765;45.794;24.150;2023-04-06T08:40:13;13.50;70.20
21518;DHT22;61765;45.794;24.150;2023-04-06T08:48:32;14.00;67.30
21518;DHT22;61765;45.794;24.150;2023-04-06T08:56:39;14.40;66.80
21518;DHT22;61765;45.794;24.150;2023-04-06T09:04:49;15.10;65.90
21518;DHT22;61765;45.794;24.150;2023-04-06T09:13:04;15.20;63.00
21518;DHT22;61765;45.794;24.150;2023-04-06T09:21:16;15.20;61.50
21518;DHT22;61765;45.794;24.150;2023-04-06T09:29:26;15.60;60.20
21518;DHT22;61765;45.794;24.150;2023-04-06T09:37:34;15.80;58.90
21518;DHT22;61765;45.794;24.150;2023-04-06T09:45:40;15.40;60.50
21518;DHT22;61765;45.794;24.150;2023-04-06T09:53:52;15.30;59.90
21518;DHT22;61765;45.794;24.150;2023-04-06T10:02:05;15.70;59.30
21518;DHT22;61765;45.794;24.150;2023-04-06T10:10:16;15.30;59.10
21518;DHT22;61765;45.794;24.150;2023-04-06T10:18:22;15.00;59.30
21518;DHT22;61765;45.794;24.150;2023-04-06T10:26:31;14.90;59.50
21518;DHT22;61765;45.794;24.150;2023-04-06T10:34:36;15.10;60.60
21518;DHT22;61765;45.794;24.150;2023-04-06T10:42:44;15.20;59.00
21518;DHT22;61765;45.794;24.150;2023-04-06T10:50:51;14.50;59.00
21518;DHT22;61765;45.794;24.150;2023-04-06T10:59:00;14.40;61.20
21518;DHT22;61765;45.794;24.150;2023-04-06T11:07:05;14.20;61.70
21518;DHT22;61765;45.794;24.150;2023-04-06T11:15:14;14.20;61.60
21518;DHT22;61765;45.794;24.150;2023-04-06T11:23:23;13.80;62.30
21518;DHT22;61765;45.794;24.150;2023-04-06T11:31:35;13.70;61.70
21518;DHT22;61765;45.794;24.150;2023-04-06T11:39:47;14.90;61.00
21518;DHT22;61765;45.794;24.150;2023-04-06T11:48:00;14.90;60.70
21518;DHT22;61765;45.794;24.150;2023-04-06T11:56:07;14.80;61.60
21518;DHT22;61765;45.794;24.150;2023-04-06T12:04:15;14.70;62.20
21518;DHT22;61765;45.794;24.150;2023-04-06T12:12:21;15.70;61.20
21518;DHT22;61765;45.794;24.150;2023-04-06T12:20:29;16.30;58.70
21518;DHT22;61765;45.794;24.150;2023-04-06T12:28:34;17.90;57.40
21518;DHT22;61765;45.794;24.150;2023-04-06T12:36:43;19.10;55.30
21518;DHT22;61765;45.794;24.150;2023-04-06T12:44:48;18.30;54.50
21518;DHT22;61765;45.794;24.150;2023-04-06T12:52:57;17.80;56.30
21518;DHT22;61765;45.794;24.150;2023-04-06T13:01:06;17.00;57.40
21518;DHT22;61765;45.794;24.150;2023-04-06T13:09:16;16.00;59.00
21518;DHT22;61765;45.794;24.150;2023-04-06T13:17:22;15.10;61.70
21518;DHT22;61765;45.794;24.150;2023-04-06T13:25:31;14.10;63.00
21518;DHT22;61765;45.794;24.150;2023-04-06T13:33:38;13.20;66.40
21518;DHT22;61765;45.794;24.150;2023-04-06T13:41:46;12.60;67.60
21518;DHT22;61765;45.794;24.150;2023-04-06T13:49:52;12.30;66.90
21518;DHT22;61765;45.794;24.150;2023-04-06T13:58:01;12.00;67.50
21518;DHT22;61765;45.794;24.150;2023-04-06T14:06:15;12.00;68.30
21518;DHT22;61765;45.794;24.150;2023-04-06T14:14:35;12.10;69.10
21518;DHT22;61765;45.794;24.150;2023-04-06T14:22:40;11.70;71.00
21518;DHT22;61765;45.794;24.150;2023-04-06T14:30:49;11.30;71.30
21518;DHT22;61765;45.794;24.150;2023-04-06T14:38:56;11.30;71.70
21518;DHT22;61765;45.794;24.150;2023-04-06T14:47:04;11.30;70.10
21518;DHT22;61765;45.794;24.150;2023-04-06T14:55:10;10.90;71.70
21518;DHT22;61765;45.794;24.150;2023-04-06T15:03:19;10.80;72.70
21518;DHT22;61765;45.794;24.150;2023-04-06T15:11:25;10.40;73.50
21518;DHT22;61765;45.794;24.150;2023-04-06T15:19:34;10.40;74.20
21518;DHT22;61765;45.794;24.150;2023-04-06T15:27:39;10.30;73.70
21518;DHT22;61765;45.794;24.150;2023-04-06T15:35:48;10.30;74.30
21518;DHT22;61765;45.794;24.150;2023-04-06T15:43:53;10.20;74.20
21518;DHT22;61765;45.794;24.150;2023-04-06T15:52:02;10.50;75.20
21518;DHT22;61765;45.794;24.150;2023-04-06T16:00:09;10.30;73.70
21518;DHT22;61765;45.794;24.150;2023-04-06T16:08:18;10.10;74.40
21518;DHT22;61765;45.794;24.150;2023-04-06T16:16:23;9.70;74.60
21518;DHT22;61765;45.794;24.150;2023-04-06T16:24:31;9.60;76.30
21518;DHT22;61765;45.794;24.150;2023-04-06T16:32:40;9.40;76.20
21518;DHT22;61765;45.794;24.150;2023-04-06T16:40:58;9.40;77.00
21518;DHT22;61765;45.794;24.150;2023-04-06T16:49:05;9.10;77.20
21518;DHT22;61765;45.794;24.150;2023-04-06T16:57:13;8.90;76.90
21518;DHT22;61765;45.794;24.150;2023-04-06T17:05:19;8.90;77.30
21518;DHT22;61765;45.794;24.150;2023-04-06T17:13:32;9.10;76.80
21518;DHT22;61765;45.794;24.150;2023-04-06T17:21:38;8.80;76.00
21518;DHT22;61765;45.794;24.150;2023-04-06T17:29:47;8.80;76.70
21518;DHT22;61765;45.794;24.150;2023-04-06T17:37:53;8.80;76.20
21518;DHT22;61765;45.794;24.150;2023-04-06T17:46:01;8.80;75.90
21518;DHT22;61765;45.794;24.150;2023-04-06T17:54:07;8.70;75.60
21518;DHT22;61765;45.794;24.150;2023-04-06T18:02:15;8.40;75.90
21518;DHT22;61765;45.794;24.150;2023-04-06T18:10:22;8.40;76.30
21518;DHT22;61765;45.794;24.150;2023-04-06T18:18:30;8.40;76.00
21518;DHT22;61765;45.794;24.150;2023-04-06T18:26:36;8.60;76.50
21518;DHT22;61765;45.794;24.150;2023-04-06T18:34:44;8.50;77.80
21518;DHT22;61765;45.794;24.150;2023-04-06T18:42:50;8.40;78.20
21518;DHT22;61765;45.794;24.150;2023-04-06T18:50:58;8.70;77.60
21518;DHT22;61765;45.794;24.150;2023-04-06T18:59:05;8.40;78.10
21518;DHT22;61765;45.794;24.150;2023-04-06T19:07:14;8.80;77.50
21518;DHT22;61765;45.794;24.150;2023-04-06T19:15:20;8.60;77.50
21518;DHT22;61765;45.794;24.150;2023-04-06T19:23:28;8.80;77.20
21518;DHT22;61765;45.794;24.150;2023-04-06T19:31:34;8.40;77.30
21518;DHT22;61765;45.794;24.150;2023-04-06T19:39:42;8.30;77.30
21518;DHT22;61765;45.794;24.150;2023-04-06T19:47:49;8.20;77.10
21518;DHT22;61765;45.794;24.150;2023-04-06T19:55:57;8.30;77.10
21518;DHT22;61765;45.794;24.150;2023-04-06T20:04:02;8.20;76.60
21518;DHT22;61765;45.794;24.150;2023-04-06T20:12:11;8.40;77.10
21518;DHT22;61765;45.794;24.150;2023-04-06T20:20:19;8.00;76.50
21518;DHT22;61765;45.794;24.150;2023-04-06T20:28:27;8.20;76.50
21518;DHT22;61765;45.794;24.150;2023-04-06T20:36:34;8.20;76.30
21518;DHT22;61765;45.794;24.150;2023-04-06T20:44:44;8.20;76.20
21518;DHT22;61765;45.794;24.150;2023-04-06T20:52:49;8.30;75.90
21518;DHT22;61765;45.794;24.150;2023-04-06T21:01:00;8.40;76.00
21518;DHT22;61765;45.794;24.150;2023-04-06T21:09:09;8.30;76.00
21518;DHT22;61765;45.794;24.150;2023-04-06T21:17:17;8.30;76.00
21518;DHT22;61765;45.794;24.150;2023-04-06T21:25:22;8.20;76.70
21518;DHT22;61765;45.794;24.150;2023-04-06T21:33:30;8.00;76.80
21518;DHT22;61765;45.794;24.150;2023-04-06T21:41:36;8.20;75.90
21518;DHT22;61765;45.794;24.150;2023-04-06T21:49:45;8.10;75.50
21518;DHT22;61765;45.794;24.150;2023-04-06T21:57:50;8.30;76.00
21518;DHT22;61765;45.794;24.150;2023-04-06T22:06:01;8.10;76.10
21518;DHT22;61765;45.794;24.150;2023-04-06T22:14:07;8.40;75.90
21518;DHT22;61765;45.794;24.150;2023-04-06T22:22:15;8.20;76.20
21518;DHT22;61765;45.794;24.150;2023-04-06T22:30:21;8.10;76.90
21518;DHT22;61765;45.794;24.150;2023-04-06T22:38:29;8.10;77.60
21518;DHT22;61765;45.794;24.150;2023-04-06T22:46:34;8.10;77.70
21518;DHT22;61765;45.794;24.150;2023-04-06T22:54:43;8.10;77.60
21518;DHT22;61765;45.794;24.150;2023-04-06T23:02:48;7.90;77.80
21518;DHT22;61765;45.794;24.150;2023-04-06T23:10:57;8.10;78.00
21518;DHT22;61765;45.794;24.150;2023-04-06T23:19:02;8.00;78.80
21518;DHT22;61765;45.794;24.150;2023-04-06T23:27:10;8.10;78.00
21518;DHT22;61765;45.794;24.150;2023-04-06T23:35:16;8.00;77.80
21518;DHT22;61765;45.794;24.150;2023-04-06T23:43:24;8.00;77.80
21518;DHT22;61765;45.794;24.150;2023-04-06T23:51:30;7.90;78.10
21518;DHT22;61765;45.794;24.150;2023-04-06T23:59:38;7.70;79.00
